Булава

Карта отелей и гостиниц, располагающихся рядом с аэропортом Булава :



Булава Хабаровский край 51° 53' 39.5988" N, 140° 25' 59.9988" E

Булава Хабаровский край 51° 53' 39.5988" N, 140° 25' 59.9988" E
Код аэродрома ИКАО: 
ZC5P
Код аэродрома RU: 
ЗЦ5П
Координаты: 
N51.89433° E140.43333°
Превышение над уровнем моря : 
35
Основная полоса: 
10/28
Курс магнитный: 
102,2/282,2
Длина основной ВПП: 
630
Ширина основной ВПП: 
30
Покрытие основной ВПП: 
Нетвёрдое (грунт)
Тип: 
Аэродром
Освещение ВПП: 
Нет
Класс аэродрома: 
Статус: 
Недействующий
Принадлежность: 
ГА
Сайт: 
E-mail аэродрома: 
Страна: 
Россия
Регион: 
Хабаровский край
Город: 
Дополнительная информация: 
Для посадки не пригоден.

Найти трансфер

С помощью этой формы Вы можете найти трансфер из аэропорта Булава в город, аэропорт или вокзал:

Карта места

Javascript is required to view this map.

Погода в аэропортах:

Авиационная погода в Черновцах

Регион: 
Погода METAR: 
UKLN 210338Z 21001MPS 4600 2100NW BR NSC M01/M01 Q1020 R33/19//65 TEMPO 0100 FZFG VV001
Время наблюдения: 
2020-02-21T03:38:00Z
Температура C: 
-1.0
Точка росы: 
-1.0
Направление ветра: 
210
Скорость ветра: 
2
Метеорологическая видимость: 
2.86
Явления погоды: 
BR
Условия полета: 
IFR
Аэропорт подробнее: 

Авиационная погода в Могилёве

Регион: 
Погода METAR: 
UMOO 210400Z 18002MPS 0200 R31/0550 FZFG VV001 M01/M01 Q1018 NOSIG RMK QBB040
Время наблюдения: 
2020-02-21T04:00:00Z
Температура C: 
-1.0
Точка росы: 
-1.0
Направление ветра: 
180
Скорость ветра: 
4
Метеорологическая видимость: 
0.12
Явления погоды: 
FZFG
Условия полета: 
LIFR
Аэропорт подробнее: 

Авиационная погода в Самсуне

Регион: 
Погода METAR: 
LTFH 210350Z 00000KT 4000 BR FEW015 SCT030 BKN100 06/05 Q1014 BECMG FM0500 7000
Время наблюдения: 
2020-02-21T03:50:00Z
Температура C: 
6.0
Точка росы: 
5.0
Направление ветра: 
0
Скорость ветра: 
0
Метеорологическая видимость: 
2.49
Явления погоды: 
BR
Условия полета: 
IFR

Авиационная погода в Уральске

Регион: 
Погода METAR: 
UARR 210400Z 36003MPS 0250 R04/0250N FZFG SCT001 BKN150 M06/M06 Q1023 R04/CLRD70 TEMPO 0200 FZFG VV001 RMK QBB050 QFE764/1018
Время наблюдения: 
2020-02-21T04:00:00Z
Температура C: 
-6.0
Точка росы: 
-6.0
Направление ветра: 
360
Скорость ветра: 
6
Метеорологическая видимость: 
0.16
Явления погоды: 
FZFG
Условия полета: 
LIFR
Аэропорт подробнее: